createdAt,value
2023-02-18T00:02:30.209Z,68.48
2023-02-18T00:05:15.900Z,68.40
2023-02-18T00:09:05.088Z,68.28
2023-02-18T00:13:03.556Z,68.18
2023-02-18T00:16:37.157Z,68.15
2023-02-18T00:19:54.736Z,68.07
2023-02-18T00:23:29.392Z,67.88
2023-02-18T00:26:15.030Z,67.58
2023-02-18T00:29:21.187Z,67.72
2023-02-18T00:32:44.474Z,67.54
2023-02-18T00:35:44.546Z,67.47
2023-02-18T00:39:13.167Z,67.44
2023-02-18T00:41:57.257Z,67.11
2023-02-18T00:45:17.312Z,66.94
2023-02-18T00:47:49.220Z,66.87
2023-02-18T00:50:26.768Z,66.64
2023-02-18T00:53:18.064Z,66.68
2023-02-18T00:56:29.861Z,66.70
2023-02-18T01:00:14.228Z,66.50
2023-02-18T01:03:37.067Z,66.50
2023-02-18T01:06:32.814Z,66.17
2023-02-18T01:09:31.410Z,66.19
2023-02-18T01:13:15.346Z,66.14
2023-02-18T01:16:13.589Z,66.11
2023-02-18T01:19:16.341Z,66.28
2023-02-18T01:22:15.843Z,66.01
2023-02-18T01:25:25.544Z,65.82
2023-02-18T01:28:40.176Z,65.78
2023-02-18T01:59:43.192Z,64.92
2023-02-18T02:02:52.616Z,64.54
2023-02-18T02:06:04.786Z,64.50
2023-02-18T02:09:10.253Z,64.74
2023-02-18T02:12:20.959Z,64.64
2023-02-18T02:15:55.924Z,64.52
2023-02-18T02:19:10.527Z,64.41
2023-02-18T02:21:52.832Z,64.50
2023-02-18T02:25:07.585Z,64.43
2023-02-18T02:28:04.486Z,64.36
2023-02-18T02:31:57.068Z,64.38
2023-02-18T02:34:47.594Z,64.33
2023-02-18T02:38:01.216Z,64.40
2023-02-18T02:41:01.943Z,64.16
2023-02-18T02:43:40.037Z,64.16
2023-02-18T02:46:52.553Z,64.01
2023-02-18T02:50:22.168Z,64.09
2023-02-18T02:53:35.887Z,64.14
2023-02-18T02:56:28.416Z,64.06
2023-02-18T03:00:12.693Z,63.96
2023-02-18T03:03:40.769Z,63.76
2023-02-18T03:07:19.794Z,63.93
2023-02-18T03:11:05.408Z,63.66
2023-02-18T03:14:37.049Z,63.85
2023-02-18T03:17:39.407Z,63.84
2023-02-18T03:20:46.911Z,63.77
2023-02-18T03:24:10.609Z,63.86
2023-02-18T03:27:42.694Z,63.59
2023-02-18T03:30:46.901Z,63.65
2023-02-18T03:34:02.910Z,63.53
2023-02-18T03:36:39.078Z,63.57
2023-02-18T03:39:29.504Z,63.75
2023-02-18T03:42:00.642Z,63.55
2023-02-18T03:45:02.732Z,63.50
2023-02-18T03:48:05.512Z,63.53
2023-02-18T03:51:19.686Z,63.46
2023-02-18T03:54:14.621Z,63.46
2023-02-18T03:57:43.844Z,63.45
2023-02-18T04:00:15.104Z,63.40
2023-02-18T04:03:10.951Z,63.36
2023-02-18T04:05:58.364Z,63.24
2023-02-18T04:08:30.026Z,63.27
2023-02-18T04:11:31.047Z,63.33
2023-02-18T04:14:53.501Z,63.04
2023-02-18T04:18:40.287Z,63.21
2023-02-18T04:21:26.780Z,63.27
2023-02-18T04:24:46.189Z,63.38
2023-02-18T04:28:04.856Z,63.22
2023-02-18T04:31:19.045Z,63.21
2023-02-18T04:34:30.825Z,63.28
2023-02-18T04:37:32.383Z,63.29
2023-02-18T04:40:37.288Z,63.15
2023-02-18T04:43:19.532Z,62.96
2023-02-18T04:46:08.817Z,63.13
2023-02-18T04:49:03.434Z,63.18
2023-02-18T04:52:21.493Z,63.27
2023-02-18T04:55:07.548Z,63.09
2023-02-18T04:58:00.134Z,63.24
2023-02-18T05:00:54.808Z,63.17
2023-02-18T05:03:48.257Z,63.13
2023-02-18T05:06:28.890Z,63.12
2023-02-18T05:09:41.879Z,63.20
2023-02-18T05:12:24.844Z,63.12
2023-02-18T05:15:24.343Z,63.05
2023-02-18T05:18:04.674Z,63.19
2023-02-18T05:20:57.529Z,63.19
2023-02-18T05:23:37.458Z,63.10
2023-02-18T05:26:32.803Z,63.13
2023-02-18T05:29:13.337Z,63.10
2023-02-18T05:31:52.679Z,63.13
2023-02-18T05:34:58.546Z,62.99
2023-02-18T05:38:13.101Z,62.90
2023-02-18T05:41:11.531Z,63.02
2023-02-18T05:44:13.167Z,63.06
2023-02-18T05:46:44.879Z,63.07
2023-02-18T06:03:14.562Z,62.87
2023-02-18T06:05:48.007Z,62.81
2023-02-18T06:08:35.055Z,62.89
2023-02-18T06:11:25.114Z,62.85
2023-02-18T06:14:03.132Z,62.82
2023-02-18T06:16:59.817Z,62.86
2023-02-18T06:20:18.434Z,62.79
2023-02-18T06:23:05.482Z,62.89
2023-02-18T06:26:27.099Z,62.88
2023-02-18T06:29:40.884Z,62.91
2023-02-18T06:32:30.989Z,62.95
2023-02-18T06:35:11.592Z,62.99
2023-02-18T06:38:13.554Z,63.14
2023-02-18T06:41:04.758Z,62.93
2023-02-18T06:43:45.079Z,62.93
2023-02-18T06:46:18.883Z,63.11
2023-02-18T06:48:59.491Z,63.11
2023-02-18T06:51:47.175Z,63.02
2023-02-18T06:54:53.202Z,62.95
2023-02-18T06:57:59.274Z,63.10
2023-02-18T07:00:57.716Z,63.06
2023-02-18T07:03:50.256Z,63.08
2023-02-18T07:06:56.909Z,63.10
2023-02-18T07:09:37.039Z,63.15
2023-02-18T07:12:25.984Z,63.10
2023-02-18T07:15:03.999Z,63.17
2023-02-18T07:18:09.463Z,63.07
2023-02-18T07:21:27.180Z,63.23
2023-02-18T07:24:36.289Z,63.08
2023-02-18T07:27:40.320Z,63.22
2023-02-18T07:30:17.669Z,63.11
2023-02-18T07:33:14.220Z,62.99
2023-02-18T07:37:23.671Z,63.04
2023-02-18T07:40:28.087Z,63.09
2023-02-18T07:44:20.448Z,63.17
2023-02-18T07:47:03.857Z,63.15
2023-02-18T07:49:52.706Z,63.13
2023-02-18T07:53:07.964Z,63.15
2023-02-18T07:55:50.389Z,63.04
2023-02-18T07:58:51.003Z,62.95
2023-02-18T08:01:25.335Z,63.00
2023-02-18T08:04:04.890Z,63.01
2023-02-18T08:06:49.899Z,62.88
2023-02-18T08:09:26.813Z,63.05
2023-02-18T08:12:05.378Z,62.92
2023-02-18T08:15:27.607Z,62.92
2023-02-18T08:18:08.094Z,62.88
2023-02-18T08:21:06.877Z,62.93
2023-02-18T08:24:19.995Z,63.02
2023-02-18T08:27:00.948Z,63.08
2023-02-18T08:29:47.789Z,63.02
2023-02-18T08:32:19.325Z,62.95
2023-02-18T08:35:11.091Z,62.83
2023-02-18T08:38:06.857Z,62.88
2023-02-18T08:41:09.502Z,62.81
2023-02-18T08:44:12.518Z,62.95
2023-02-18T08:48:18.158Z,62.93
2023-02-18T08:50:26.628Z,62.97
2023-02-18T08:53:52.195Z,62.86
2023-02-18T08:57:15.832Z,62.96
2023-02-18T09:00:42.796Z,62.89
2023-02-18T09:03:41.672Z,62.75
2023-02-18T09:07:00.934Z,62.78
2023-02-18T09:09:44.796Z,62.93
2023-02-18T09:12:42.866Z,62.77
2023-02-18T09:15:23.142Z,62.58
2023-02-18T09:18:27.916Z,62.68
2023-02-18T09:21:09.506Z,62.69
2023-02-18T09:23:56.112Z,62.59
2023-02-18T09:26:47.662Z,62.60
2023-02-18T09:29:20.540Z,62.56
2023-02-18T09:32:34.452Z,62.60
2023-02-18T09:35:39.404Z,62.56
2023-02-18T09:38:40.373Z,62.65
2023-02-18T09:41:19.911Z,62.42
2023-02-18T09:44:11.647Z,62.47
2023-02-18T09:47:35.662Z,62.38
2023-02-18T09:50:29.421Z,62.26
2023-02-18T09:53:08.485Z,62.29
2023-02-18T09:55:50.984Z,62.18
2023-02-18T09:58:44.502Z,62.10
2023-02-18T10:01:28.083Z,62.03
2023-02-18T10:04:55.642Z,61.82
2023-02-18T10:08:25.626Z,61.85
2023-02-18T10:11:32.297Z,62.13
2023-02-18T10:14:36.073Z,61.84
2023-02-18T10:17:40.427Z,61.87
2023-02-18T10:20:43.649Z,61.84
2023-02-18T10:23:48.476Z,61.90
2023-02-18T10:27:41.542Z,61.77
2023-02-18T10:31:42.996Z,61.46
2023-02-18T10:35:37.885Z,61.40
2023-02-18T10:39:17.888Z,61.30
2023-02-18T10:42:53.285Z,61.10
2023-02-18T10:46:16.612Z,61.24
2023-02-18T10:49:56.100Z,61.14
2023-02-18T10:53:58.476Z,61.17
2023-02-18T10:57:41.964Z,61.21
2023-02-18T11:01:25.514Z,60.98
2023-02-18T11:05:00.706Z,61.13
2023-02-18T11:08:03.530Z,61.03
2023-02-18T11:11:34.408Z,60.88
2023-02-18T11:15:36.166Z,60.92
2023-02-18T11:19:07.207Z,60.81
2023-02-18T11:22:28.288Z,60.88
2023-02-18T11:26:13.634Z,60.67
2023-02-18T11:29:41.576Z,60.39
2023-02-18T11:32:19.224Z,60.39
2023-02-18T11:35:11.163Z,60.46
2023-02-18T11:37:53.538Z,60.21
2023-02-18T11:40:31.765Z,59.95
2023-02-18T11:43:33.654Z,59.91
2023-02-18T11:46:23.984Z,59.91
2023-02-18T11:49:41.805Z,60.02
2023-02-18T11:53:11.060Z,59.69
2023-02-18T11:56:06.492Z,59.79
2023-02-18T11:59:07.990Z,59.82
2023-02-18T12:02:43.414Z,59.86
2023-02-18T12:05:46.188Z,59.66
2023-02-18T12:09:06.412Z,59.71
2023-02-18T12:11:51.177Z,59.66
2023-02-18T12:14:48.590Z,59.49
2023-02-18T12:18:16.376Z,59.43
2023-02-18T12:21:22.943Z,59.50
2023-02-18T12:24:06.508Z,59.75
2023-02-18T12:27:17.156Z,59.72
2023-02-18T12:30:32.821Z,59.65
2023-02-18T12:34:10.397Z,59.70
2023-02-18T12:37:53.055Z,59.38
2023-02-18T12:41:31.330Z,59.12
2023-02-18T12:44:50.532Z,59.24
2023-02-18T12:48:37.969Z,59.40
2023-02-18T12:51:38.346Z,59.63
2023-02-18T12:54:51.219Z,59.47
2023-02-18T12:58:22.578Z,59.49
2023-02-18T13:01:43.821Z,59.35
2023-02-18T13:04:41.251Z,59.59
2023-02-18T13:08:13.371Z,59.54
2023-02-18T13:11:57.128Z,59.60
2023-02-18T13:15:22.571Z,59.64
2023-02-18T13:18:47.892Z,59.57
2023-02-18T13:21:40.698Z,59.61
2023-02-18T13:24:45.268Z,59.73
2023-02-18T13:27:50.339Z,59.66
2023-02-18T13:30:57.472Z,59.84
2023-02-18T13:34:04.994Z,59.67
2023-02-18T13:37:38.855Z,59.73
2023-02-18T13:40:36.840Z,59.72
2023-02-18T13:43:48.086Z,59.82
2023-02-18T13:47:09.059Z,59.73
2023-02-18T13:49:52.517Z,59.99
2023-02-18T13:52:37.221Z,59.83
2023-02-18T13:55:46.472Z,60.02
2023-02-18T13:58:56.733Z,59.97
2023-02-18T14:01:59.344Z,59.85
2023-02-18T14:05:47.579Z,59.85
2023-02-18T14:09:30.916Z,59.83
2023-02-18T14:13:03.301Z,60.01
2023-02-18T14:16:08.865Z,60.05
2023-02-18T14:19:41.132Z,60.15
2023-02-18T14:23:39.632Z,60.34
2023-02-18T14:26:36.998Z,60.43
2023-02-18T14:29:31.198Z,60.38
2023-02-18T14:32:24.262Z,60.41
2023-02-18T14:35:27.781Z,60.43
2023-02-18T14:38:51.701Z,60.32
2023-02-18T14:42:04.169Z,60.46
2023-02-18T14:45:14.486Z,60.39
2023-02-18T14:49:21.953Z,60.44
2023-02-18T14:52:08.739Z,60.54
2023-02-18T14:54:56.528Z,60.68
2023-02-18T14:58:00.305Z,60.62
2023-02-18T15:01:06.600Z,60.72
2023-02-18T15:04:50.959Z,60.59
2023-02-18T15:08:56.924Z,60.86
2023-02-18T15:12:55.287Z,60.69
2023-02-18T15:16:09.002Z,60.89
2023-02-18T15:19:31.219Z,60.87
2023-02-18T15:22:04.741Z,60.81
2023-02-18T15:24:54.728Z,61.04
2023-02-18T15:27:49.785Z,61.12
2023-02-18T15:31:05.015Z,61.09
2023-02-18T15:33:56.424Z,61.16
2023-02-18T15:37:25.580Z,61.41
2023-02-18T15:40:54.625Z,61.34
2023-02-18T15:43:35.763Z,61.29
2023-02-18T15:46:43.254Z,61.40
2023-02-18T15:50:00.203Z,61.48
2023-02-18T15:53:39.230Z,61.55
2023-02-18T15:56:41.421Z,61.58
2023-02-18T16:00:13.262Z,61.68
2023-02-18T16:03:54.120Z,61.62
2023-02-18T16:07:02.939Z,61.86
2023-02-18T16:10:44.367Z,61.83
2023-02-18T16:14:08.483Z,61.85
2023-02-18T16:17:11.435Z,61.94
2023-02-18T16:20:33.750Z,61.92
2023-02-18T16:24:11.926Z,61.95
2023-02-18T16:27:40.264Z,62.07
2023-02-18T16:30:53.176Z,61.91
2023-02-18T16:34:07.753Z,62.07
2023-02-18T16:37:47.998Z,62.22
2023-02-18T16:41:05.801Z,62.14
2023-02-18T16:45:15.269Z,62.24
2023-02-18T16:48:59.965Z,62.23
2023-02-18T16:52:37.388Z,62.30
2023-02-18T16:56:09.338Z,62.42
2023-02-18T16:59:36.089Z,62.35
2023-02-18T17:03:07.218Z,62.38
2023-02-18T17:06:54.735Z,62.52
2023-02-18T17:10:39.669Z,62.48
2023-02-18T17:14:14.422Z,62.73
2023-02-18T17:18:05.065Z,62.67
2023-02-18T17:21:51.051Z,62.58
2023-02-18T17:25:42.349Z,62.66
2023-02-18T17:29:13.834Z,62.72
2023-02-18T17:33:03.453Z,62.71
2023-02-18T17:36:47.847Z,62.75
2023-02-18T17:39:57.493Z,62.82
2023-02-18T17:43:25.828Z,63.04
2023-02-18T17:47:25.221Z,63.04
2023-02-18T17:51:13.732Z,63.00
2023-02-18T17:54:57.971Z,63.02
2023-02-18T17:58:49.399Z,63.17
2023-02-18T18:02:21.613Z,63.29
2023-02-18T18:05:58.957Z,63.29
2023-02-18T18:09:31.279Z,63.18
2023-02-18T18:13:32.887Z,63.40
2023-02-18T18:17:03.430Z,63.34
2023-02-18T18:20:51.773Z,63.43
2023-02-18T18:24:34.131Z,63.44
2023-02-18T18:28:37.537Z,63.59
2023-02-18T18:32:37.328Z,63.67
2023-02-18T18:36:20.839Z,63.59
2023-02-18T18:39:52.612Z,63.77
2023-02-18T18:44:04.845Z,63.71
2023-02-18T18:47:57.033Z,63.75
2023-02-18T18:51:17.914Z,63.80
2023-02-18T18:54:41.790Z,63.70
2023-02-18T18:58:22.855Z,63.72
2023-02-18T19:02:21.082Z,64.03
2023-02-18T19:05:58.412Z,63.89
2023-02-18T19:09:36.971Z,63.91
2023-02-18T19:12:45.460Z,63.91
2023-02-18T19:16:43.285Z,64.09
2023-02-18T19:20:08.074Z,64.14
2023-02-18T19:23:43.957Z,64.18
2023-02-18T19:27:17.321Z,64.15
2023-02-18T19:30:25.963Z,64.09
2023-02-18T19:34:02.660Z,64.27
2023-02-18T19:37:37.945Z,64.43
2023-02-18T19:41:32.996Z,64.46
2023-02-18T19:45:00.018Z,64.35
2023-02-18T19:48:29.390Z,64.41
2023-02-18T19:52:05.667Z,64.53
2023-02-18T19:55:14.169Z,64.55
2023-02-18T19:58:36.959Z,64.53
2023-02-18T20:01:27.511Z,64.65
2023-02-18T20:05:06.565Z,64.73
2023-02-18T20:08:41.209Z,64.67
2023-02-18T20:12:19.848Z,64.65
2023-02-18T20:15:43.860Z,64.55
2023-02-18T20:19:01.158Z,64.68
2023-02-18T20:22:51.637Z,64.78
2023-02-18T20:26:24.216Z,64.89
2023-02-18T20:29:46.592Z,64.91
2023-02-18T20:33:39.990Z,64.98
2023-02-18T20:37:30.053Z,64.92
2023-02-18T20:40:49.652Z,64.86
2023-02-18T20:44:03.405Z,65.10
2023-02-18T20:47:39.852Z,65.03
2023-02-18T20:51:06.534Z,65.05
2023-02-18T20:54:20.272Z,65.00
2023-02-18T20:57:32.497Z,65.13
2023-02-18T21:01:37.796Z,65.19
2023-02-18T21:05:05.453Z,65.22
2023-02-18T21:09:05.706Z,65.35
2023-02-18T21:12:50.962Z,65.33
2023-02-18T21:16:25.140Z,65.39
2023-02-18T21:20:24.908Z,65.58
2023-02-18T21:23:54.747Z,65.48
2023-02-18T21:27:44.345Z,65.27
2023-02-18T21:31:56.553Z,65.38
2023-02-18T21:35:31.494Z,65.43
2023-02-18T21:39:21.013Z,65.48
2023-02-18T21:42:57.537Z,65.59
2023-02-18T21:47:10.003Z,65.48
2023-02-18T21:50:44.548Z,65.62
2023-02-18T21:54:54.028Z,65.72
2023-02-18T21:58:50.717Z,65.67
2023-02-18T22:02:38.889Z,65.76
2023-02-18T22:06:21.225Z,65.70
2023-02-18T22:09:53.838Z,65.75
2023-02-18T22:13:30.044Z,65.76
2023-02-18T22:16:35.117Z,65.59
